createdAt,value
2019-04-21T00:01:54.088Z,14.50
2019-04-21T00:04:34.612Z,14.50
2019-04-21T00:07:16.009Z,14.40
2019-04-21T00:09:50.172Z,14.40
2019-04-21T00:12:15.255Z,14.30
2019-04-21T00:14:35.814Z,14.30
2019-04-21T00:17:03.082Z,14.20
2019-04-21T00:19:31.779Z,14.20
2019-04-21T00:22:11.437Z,14.10
2019-04-21T00:24:41.249Z,14.10
2019-04-21T00:27:15.560Z,14.10
2019-04-21T00:29:50.048Z,14.10
2019-04-21T00:32:16.507Z,14.10
2019-04-21T00:34:30.203Z,14.00
2019-04-21T00:37:11.273Z,14.00
2019-04-21T00:39:55.673Z,13.90
2019-04-21T00:42:19.458Z,13.90
2019-04-21T00:45:01.878Z,13.90
2019-04-21T00:47:57.752Z,13.80
2019-04-21T00:50:18.034Z,13.70
2019-04-21T00:52:56.260Z,13.70
2019-04-21T00:55:29.173Z,13.60
2019-04-21T01:00:22.184Z,13.50
2019-04-21T01:05:21.358Z,13.30
2019-04-21T01:07:50.395Z,13.30
2019-04-21T01:10:15.026Z,13.30
2019-04-21T01:12:54.686Z,13.20
2019-04-21T01:15:26.130Z,13.10
2019-04-21T01:17:51.894Z,13.00
2019-04-21T01:20:12.938Z,13.00
2019-04-21T01:22:30.237Z,13.00
2019-04-21T01:25:09.956Z,13.00
2019-04-21T01:27:49.408Z,13.00
2019-04-21T01:30:20.157Z,12.90
2019-04-21T01:32:49.430Z,12.90
2019-04-21T01:35:20.874Z,12.90
2019-04-21T01:38:00.183Z,12.80
2019-04-21T01:40:24.147Z,12.70
2019-04-21T01:42:55.737Z,12.70
2019-04-21T01:45:27.735Z,12.60
2019-04-21T01:47:52.134Z,12.50
2019-04-21T01:50:27.457Z,12.50
2019-04-21T01:53:15.422Z,12.50
2019-04-21T01:55:48.517Z,12.40
2019-04-21T01:58:15.559Z,12.40
2019-04-21T02:00:50.511Z,12.30
2019-04-21T02:03:45.301Z,12.30
2019-04-21T02:06:00.008Z,12.30
2019-04-21T02:08:21.694Z,12.20
2019-04-21T02:11:00.663Z,12.20
2019-04-21T02:13:17.147Z,12.20
2019-04-21T02:15:59.426Z,12.20
2019-04-21T02:18:23.041Z,12.20
2019-04-21T02:20:44.516Z,12.20
2019-04-21T02:25:58.780Z,12.00
2019-04-21T02:28:28.036Z,12.00
2019-04-21T02:31:14.176Z,12.00
2019-04-21T02:33:43.117Z,12.00
2019-04-21T02:36:22.843Z,12.00
2019-04-21T02:38:40.251Z,12.00
2019-04-21T02:40:57.852Z,11.90
2019-04-21T02:43:40.064Z,11.90
2019-04-21T02:46:12.862Z,11.80
2019-04-21T02:48:38.302Z,11.80
2019-04-21T02:51:03.991Z,11.70
2019-04-21T02:56:11.194Z,11.70
2019-04-21T02:58:48.005Z,11.60
2019-04-21T03:04:30.350Z,11.50
2019-04-21T03:07:09.662Z,11.60
2019-04-21T03:09:31.423Z,11.50
2019-04-21T03:12:04.823Z,11.50
2019-04-21T03:14:35.985Z,11.50
2019-04-21T03:16:59.603Z,11.50
2019-04-21T03:19:37.942Z,11.40
2019-04-21T03:22:06.599Z,11.40
2019-04-21T03:24:46.301Z,11.40
2019-04-21T03:27:10.161Z,11.30
2019-04-21T03:29:34.998Z,11.30
2019-04-21T03:32:33.174Z,11.30
2019-04-21T03:34:57.006Z,11.20
2019-04-21T03:39:43.237Z,11.20
2019-04-21T03:42:07.521Z,11.20
2019-04-21T03:44:33.129Z,11.10
2019-04-21T03:52:03.218Z,10.90
2019-04-21T03:54:36.359Z,10.90
2019-04-21T03:57:26.847Z,10.90
2019-04-21T03:59:31.014Z,10.90
2019-04-21T04:02:10.750Z,10.90
2019-04-21T04:04:34.244Z,10.80
2019-04-21T04:07:39.703Z,10.80
2019-04-21T04:10:02.885Z,10.80
2019-04-21T04:12:26.869Z,10.80
2019-04-21T04:14:50.144Z,10.80
2019-04-21T04:17:25.529Z,10.70
2019-04-21T04:20:01.455Z,10.70
2019-04-21T04:22:31.436Z,10.70
2019-04-21T04:25:05.161Z,10.70
2019-04-21T04:29:59.314Z,10.70
2019-04-21T04:32:30.739Z,10.70
2019-04-21T04:35:03.272Z,10.70
2019-04-21T04:37:33.939Z,10.60
2019-04-21T04:40:10.757Z,10.60
2019-04-21T04:45:17.593Z,10.60
2019-04-21T04:55:03.736Z,10.70
2019-04-21T05:00:15.732Z,10.70
2019-04-21T05:05:14.063Z,10.70
2019-04-21T05:07:55.417Z,10.70
2019-04-21T05:09:59.190Z,10.70
2019-04-21T05:12:32.505Z,10.70
2019-04-21T05:15:09.981Z,10.70
2019-04-21T05:17:37.880Z,10.70
2019-04-21T05:20:10.429Z,10.80
2019-04-21T05:22:31.464Z,10.80
2019-04-21T05:24:54.884Z,10.80
2019-04-21T05:27:29.402Z,10.80
2019-04-21T05:30:09.734Z,10.80
2019-04-21T05:32:59.866Z,10.90
2019-04-21T05:35:46.254Z,10.90
2019-04-21T05:38:16.683Z,10.90
2019-04-21T05:40:38.916Z,11.00
2019-04-21T05:43:21.589Z,11.00
2019-04-21T05:48:23.178Z,11.00
2019-04-21T05:50:44.115Z,11.10
2019-04-21T05:53:27.923Z,11.20
2019-04-21T05:55:51.759Z,11.20
2019-04-21T05:58:19.689Z,11.20
2019-04-21T06:03:32.265Z,11.40
2019-04-21T06:08:29.726Z,11.40
2019-04-21T06:11:00.253Z,11.50
2019-04-21T06:13:38.197Z,11.50
2019-04-21T06:15:56.974Z,11.60
2019-04-21T06:18:35.190Z,11.70
2019-04-21T06:21:00.394Z,11.80
2019-04-21T06:23:30.117Z,11.80
2019-04-21T06:26:18.050Z,11.90
2019-04-21T06:28:35.444Z,12.00
2019-04-21T06:33:44.619Z,12.30
2019-04-21T06:36:31.779Z,12.40
2019-04-21T06:41:21.059Z,12.70
2019-04-21T06:43:58.446Z,12.80
2019-04-21T06:46:25.610Z,12.90
2019-04-21T06:48:52.176Z,13.10
2019-04-21T06:51:25.504Z,13.20
2019-04-21T06:53:57.812Z,13.30
2019-04-21T06:56:26.251Z,13.40
2019-04-21T06:58:45.014Z,13.50
2019-04-21T07:01:24.150Z,13.60
2019-04-21T07:06:23.706Z,13.80
2019-04-21T07:09:02.403Z,13.90
2019-04-21T07:11:21.788Z,14.00
2019-04-21T07:14:01.783Z,14.20
2019-04-21T07:16:25.449Z,14.20
2019-04-21T07:19:03.988Z,14.30
2019-04-21T07:21:21.868Z,14.40
2019-04-21T07:23:53.828Z,14.50
2019-04-21T07:26:20.311Z,14.50
2019-04-21T07:28:59.814Z,14.60
2019-04-21T07:31:26.402Z,14.80
2019-04-21T07:36:30.564Z,15.00
2019-04-21T07:38:49.868Z,15.10
2019-04-21T07:41:15.854Z,15.10
2019-04-21T07:43:57.215Z,15.20
2019-04-21T07:46:25.419Z,15.30
2019-04-21T07:49:04.257Z,15.40
2019-04-21T07:51:56.816Z,15.50
2019-04-21T07:54:32.102Z,15.60
2019-04-21T07:56:36.163Z,15.70
2019-04-21T07:59:30.898Z,15.80
2019-04-21T08:01:56.341Z,15.90
2019-04-21T08:06:52.012Z,16.00
2019-04-21T08:09:26.169Z,16.00
2019-04-21T08:11:49.949Z,16.10
2019-04-21T08:14:24.314Z,16.20
2019-04-21T08:16:57.305Z,16.20
2019-04-21T08:19:26.692Z,16.40
2019-04-21T08:21:59.889Z,16.40
2019-04-21T08:24:30.605Z,16.50
2019-04-21T08:26:58.605Z,16.60
2019-04-21T08:32:02.823Z,16.70
2019-04-21T08:34:31.197Z,16.80
2019-04-21T08:36:52.830Z,16.80
2019-04-21T08:39:28.871Z,16.90
2019-04-21T08:41:56.208Z,16.90
2019-04-21T08:44:35.295Z,17.00
2019-04-21T08:46:58.829Z,17.10
2019-04-21T08:49:26.766Z,17.10
2019-04-21T08:52:00.734Z,17.30
2019-04-21T08:54:30.387Z,17.30
2019-04-21T08:57:24.723Z,17.40
2019-04-21T08:59:53.376Z,17.50
2019-04-21T09:02:29.544Z,17.50
2019-04-21T09:04:52.755Z,17.60
2019-04-21T09:10:00.857Z,17.70
2019-04-21T09:12:32.091Z,17.90
2019-04-21T09:14:56.662Z,18.00
2019-04-21T09:17:20.619Z,18.20
2019-04-21T09:20:01.800Z,18.30
2019-04-21T09:22:28.676Z,18.30
2019-04-21T09:24:55.761Z,18.40
2019-04-21T09:27:26.991Z,18.50
2019-04-21T09:29:44.812Z,18.60
2019-04-21T09:32:12.374Z,18.60
2019-04-21T09:34:43.434Z,18.70
2019-04-21T09:37:18.985Z,18.80
2019-04-21T09:39:43.405Z,18.90
2019-04-21T09:42:08.876Z,19.10
2019-04-21T09:44:40.926Z,19.20
2019-04-21T09:47:08.820Z,19.20
2019-04-21T09:49:38.091Z,19.30
2019-04-21T09:52:13.743Z,19.40
2019-04-21T09:54:49.356Z,19.40
2019-04-21T09:57:18.294Z,19.50
2019-04-21T09:59:40.721Z,19.50
2019-04-21T10:02:16.383Z,19.50
2019-04-21T10:04:38.182Z,19.60
2019-04-21T10:07:06.838Z,19.70
2019-04-21T10:09:35.629Z,19.80
2019-04-21T10:12:05.201Z,19.90
2019-04-21T10:14:33.774Z,19.90
2019-04-21T10:17:13.098Z,20.00
2019-04-21T10:19:42.000Z,20.00
2019-04-21T10:22:10.680Z,20.10
2019-04-21T10:24:40.343Z,20.10
2019-04-21T10:27:10.459Z,20.20
2019-04-21T10:29:42.684Z,20.20
2019-04-21T10:32:09.236Z,20.30
2019-04-21T10:34:38.973Z,20.40
2019-04-21T10:37:07.469Z,20.50
2019-04-21T10:39:35.916Z,20.70
2019-04-21T10:42:05.574Z,20.70
2019-04-21T10:44:34.711Z,20.90
2019-04-21T10:47:04.668Z,20.90
2019-04-21T10:49:34.835Z,21.00
2019-04-21T10:52:05.053Z,21.10
2019-04-21T10:54:49.127Z,21.10
2019-04-21T10:57:06.344Z,21.10
2019-04-21T10:59:35.327Z,21.30
2019-04-21T11:02:05.596Z,21.40
2019-04-21T11:04:37.341Z,21.40
2019-04-21T11:07:11.379Z,21.60
2019-04-21T11:09:36.130Z,21.60
2019-04-21T11:12:06.141Z,21.70
2019-04-21T11:14:35.586Z,21.80
2019-04-21T11:17:04.303Z,21.90
2019-04-21T11:19:32.841Z,21.90
2019-04-21T11:22:01.356Z,22.00
2019-04-21T11:24:31.182Z,22.10
2019-04-21T11:27:00.126Z,22.20
2019-04-21T11:29:30.998Z,22.30
2019-04-21T11:32:00.987Z,22.40
2019-04-21T11:34:29.630Z,22.60
2019-04-21T11:36:58.454Z,22.70
2019-04-21T11:39:39.189Z,22.80
2019-04-21T11:41:59.602Z,22.80
2019-04-21T11:44:29.047Z,22.90
2019-04-21T11:46:58.377Z,23.00
2019-04-21T11:49:29.105Z,23.10
2019-04-21T11:51:57.140Z,23.20
2019-04-21T11:54:26.795Z,23.30
2019-04-21T11:56:55.361Z,23.30
2019-04-21T11:59:23.927Z,23.30
2019-04-21T12:01:52.386Z,23.40
2019-04-21T12:04:21.366Z,23.50
2019-04-21T12:06:52.197Z,23.60
2019-04-21T12:09:20.919Z,23.60
2019-04-21T12:11:49.590Z,23.70
2019-04-21T12:14:18.301Z,23.90
2019-04-21T12:16:48.738Z,24.00
2019-04-21T12:19:18.648Z,24.20
2019-04-21T12:21:58.882Z,24.20
2019-04-21T12:24:17.446Z,24.30
2019-04-21T12:26:46.359Z,24.40
2019-04-21T12:29:14.824Z,24.40
2019-04-21T12:31:59.907Z,24.50
2019-04-21T12:34:30.066Z,24.50
2019-04-21T12:36:59.107Z,24.50
2019-04-21T12:39:27.685Z,24.60
2019-04-21T12:41:56.470Z,24.60
2019-04-21T12:44:24.973Z,24.70
2019-04-21T12:46:54.048Z,24.80
2019-04-21T12:49:22.574Z,25.00
2019-04-21T12:51:51.524Z,25.00
2019-04-21T12:54:21.583Z,25.10
2019-04-21T12:56:51.591Z,25.10
2019-04-21T12:59:21.202Z,25.20
2019-04-21T13:01:50.783Z,25.40
2019-04-21T13:04:19.749Z,25.40
2019-04-21T13:06:49.744Z,25.40
2019-04-21T13:09:20.432Z,25.40
2019-04-21T13:11:48.894Z,25.50
2019-04-21T13:14:17.821Z,25.60
2019-04-21T13:16:47.672Z,25.70
2019-04-21T13:19:17.442Z,25.70
2019-04-21T13:21:46.012Z,25.80
2019-04-21T13:24:15.818Z,25.90
2019-04-21T13:26:50.909Z,26.00
2019-04-21T13:29:14.648Z,25.90
2019-04-21T13:31:44.439Z,25.90
2019-04-21T13:34:13.875Z,26.00
2019-04-21T13:36:43.585Z,26.00
2019-04-21T13:39:50.687Z,26.00
2019-04-21T13:42:10.929Z,26.10
2019-04-21T13:44:30.991Z,26.20
2019-04-21T13:47:00.698Z,26.20
2019-04-21T13:49:29.581Z,26.30
2019-04-21T13:51:58.167Z,26.30
2019-04-21T13:54:27.424Z,26.30
2019-04-21T13:56:56.516Z,26.30
2019-04-21T13:59:26.318Z,26.40
2019-04-21T14:01:54.991Z,26.40
2019-04-21T14:04:23.625Z,26.40
2019-04-21T14:06:52.236Z,26.50
2019-04-21T14:09:21.870Z,26.50
2019-04-21T14:11:53.508Z,26.60
2019-04-21T14:14:20.712Z,26.70
2019-04-21T14:16:49.946Z,26.70
2019-04-21T14:19:19.271Z,26.70
2019-04-21T14:21:49.890Z,26.70
2019-04-21T14:24:19.017Z,26.80
2019-04-21T14:26:47.943Z,26.70
2019-04-21T14:29:17.581Z,26.70
2019-04-21T14:31:46.448Z,26.60
2019-04-21T14:34:16.218Z,26.60
2019-04-21T14:36:44.883Z,26.50
2019-04-21T14:39:14.609Z,26.50
2019-04-21T14:41:44.288Z,26.60
2019-04-21T14:44:13.210Z,26.60
2019-04-21T14:46:49.262Z,26.60
2019-04-21T14:49:19.472Z,26.50
2019-04-21T14:51:59.018Z,26.50
2019-04-21T14:54:36.409Z,26.60
2019-04-21T14:57:05.232Z,26.70
2019-04-21T14:59:35.059Z,26.70
2019-04-21T15:02:03.925Z,26.70
2019-04-21T15:04:33.805Z,26.60
2019-04-21T15:07:03.352Z,26.80
2019-04-21T15:09:35.508Z,26.80
2019-04-21T15:12:02.367Z,26.70
2019-04-21T15:14:31.859Z,26.60
2019-04-21T15:17:01.009Z,26.70
2019-04-21T15:19:30.844Z,26.60
2019-04-21T15:22:00.589Z,26.70
2019-04-21T15:24:30.186Z,26.50
2019-04-21T15:26:59.060Z,26.50
2019-04-21T15:29:28.813Z,26.50
2019-04-21T15:31:58.703Z,26.50
2019-04-21T15:34:27.485Z,26.40
2019-04-21T15:36:55.936Z,26.30
2019-04-21T15:39:25.636Z,26.30
2019-04-21T15:41:54.607Z,26.20
2019-04-21T15:44:23.089Z,26.10
2019-04-21T15:46:52.109Z,26.00
2019-04-21T15:49:22.963Z,25.90
2019-04-21T15:51:51.833Z,25.90
2019-04-21T15:54:20.632Z,25.80
2019-04-21T15:56:51.228Z,25.70
2019-04-21T15:59:28.460Z,25.60
2019-04-21T16:02:01.436Z,25.50
2019-04-21T16:04:30.673Z,25.50
2019-04-21T16:06:59.523Z,25.40
2019-04-21T16:09:30.609Z,25.30
2019-04-21T16:11:58.157Z,25.20
2019-04-21T16:14:27.050Z,25.10
2019-04-21T16:16:57.010Z,25.00
2019-04-21T16:19:27.071Z,24.90
2019-04-21T16:21:56.805Z,24.90
2019-04-21T16:24:25.401Z,24.80
2019-04-21T16:26:53.833Z,24.80
2019-04-21T16:29:22.995Z,24.60
2019-04-21T16:31:51.508Z,24.50
2019-04-21T16:34:20.004Z,24.40
2019-04-21T16:36:49.655Z,24.30
2019-04-21T16:39:19.631Z,24.20
2019-04-21T16:41:48.207Z,24.10
2019-04-21T16:44:16.931Z,24.00
2019-04-21T16:46:45.466Z,23.90
2019-04-21T16:49:13.974Z,23.80
2019-04-21T16:51:42.491Z,23.70
2019-04-21T16:54:15.778Z,23.60
2019-04-21T16:56:45.828Z,23.50
2019-04-21T16:59:16.758Z,23.40
2019-04-21T17:01:46.769Z,23.30
2019-04-21T17:04:16.060Z,23.20
2019-04-21T17:06:45.021Z,23.20
2019-04-21T17:09:14.656Z,23.10
2019-04-21T17:11:46.152Z,23.00
2019-04-21T17:16:31.933Z,22.90
2019-04-21T17:17:09.905Z,22.90
2019-04-21T17:19:20.293Z,22.80
2019-04-21T17:21:43.729Z,22.80
2019-04-21T17:24:12.657Z,22.70
2019-04-21T17:26:43.995Z,22.60
2019-04-21T17:29:12.377Z,22.60
2019-04-21T17:31:41.431Z,22.50
2019-04-21T17:34:14.503Z,22.50
2019-04-21T17:36:41.053Z,22.30
2019-04-21T17:39:10.991Z,22.20
2019-04-21T17:41:54.127Z,22.10
2019-04-21T17:44:10.626Z,22.10
2019-04-21T17:46:46.605Z,22.00
2019-04-21T17:49:10.738Z,21.90
2019-04-21T17:51:53.713Z,21.80
2019-04-21T17:54:33.176Z,21.70
2019-04-21T17:57:17.986Z,21.70
2019-04-21T18:02:09.421Z,21.50
2019-04-21T18:04:49.362Z,21.30
2019-04-21T18:07:26.089Z,21.20
2019-04-21T18:09:56.194Z,21.20
2019-04-21T18:12:23.516Z,21.00
2019-04-21T18:14:36.758Z,21.00
2019-04-21T18:17:06.569Z,20.90
2019-04-21T18:19:39.775Z,20.80
2019-04-21T18:22:09.076Z,20.70
2019-04-21T18:24:48.054Z,20.60
2019-04-21T18:27:09.732Z,20.50
2019-04-21T18:29:40.088Z,20.40
2019-04-21T18:32:08.634Z,20.30
2019-04-21T18:34:47.785Z,20.20
2019-04-21T18:37:34.990Z,20.10
2019-04-21T18:40:06.698Z,20.10
2019-04-21T18:42:47.909Z,20.00
2019-04-21T18:48:09.391Z,19.80
2019-04-21T18:50:53.631Z,19.70
2019-04-21T18:53:41.462Z,19.60
2019-04-21T18:55:59.934Z,19.50
2019-04-21T18:58:24.187Z,19.40
2019-04-21T19:00:53.142Z,19.30
2019-04-21T19:03:30.711Z,19.20
2019-04-21T19:05:59.443Z,19.20
2019-04-21T19:08:44.759Z,19.10
2019-04-21T19:11:13.312Z,19.10
2019-04-21T19:14:13.277Z,19.00
2019-04-21T19:16:46.403Z,18.90
2019-04-21T19:19:31.640Z,18.90
2019-04-21T19:21:28.016Z,18.80
2019-04-21T19:24:10.475Z,18.70
2019-04-21T19:26:37.795Z,18.60
2019-04-21T19:29:06.298Z,18.60
2019-04-21T19:31:31.559Z,18.60
2019-04-21T19:33:55.678Z,18.50
2019-04-21T19:36:15.234Z,18.50
2019-04-21T19:38:55.955Z,18.40
2019-04-21T19:41:28.814Z,18.30
2019-04-21T19:44:02.452Z,18.30
2019-04-21T19:46:30.633Z,18.30
2019-04-21T19:49:10.851Z,18.20
2019-04-21T19:51:26.404Z,18.10
2019-04-21T19:53:53.816Z,18.10
2019-04-21T19:56:14.236Z,18.00
2019-04-21T19:58:46.048Z,18.00
2019-04-21T20:01:13.779Z,18.00
2019-04-21T20:03:43.197Z,17.90
2019-04-21T20:06:28.591Z,17.90
2019-04-21T20:08:56.418Z,17.80
2019-04-21T20:11:30.573Z,17.80
2019-04-21T20:14:18.364Z,17.70
2019-04-21T20:16:33.937Z,17.70
2019-04-21T20:18:49.541Z,17.60
2019-04-21T20:21:14.227Z,17.60
2019-04-21T20:23:44.674Z,17.60
2019-04-21T20:26:14.044Z,17.50
2019-04-21T20:28:54.708Z,17.50
2019-04-21T20:31:31.601Z,17.50
2019-04-21T20:34:07.955Z,17.40
2019-04-21T20:36:38.026Z,17.40
2019-04-21T20:38:50.126Z,17.40
2019-04-21T20:41:29.723Z,17.30
2019-04-21T20:44:02.211Z,17.30
2019-04-21T20:46:31.389Z,17.20
2019-04-21T20:49:00.677Z,17.10
2019-04-21T20:51:31.448Z,17.10
2019-04-21T20:53:56.009Z,17.10
2019-04-21T20:56:29.034Z,17.00
2019-04-21T20:58:59.729Z,17.00
2019-04-21T21:01:43.411Z,17.00
2019-04-21T21:03:58.007Z,16.90
2019-04-21T21:06:27.702Z,16.90
2019-04-21T21:09:03.553Z,16.80
2019-04-21T21:11:29.584Z,16.80
2019-04-21T21:13:58.769Z,16.80
2019-04-21T21:16:41.425Z,16.70
2019-04-21T21:19:16.617Z,16.60
2019-04-21T21:21:38.360Z,16.60
2019-04-21T21:24:03.487Z,16.50
2019-04-21T21:26:38.108Z,16.50
2019-04-21T21:28:58.803Z,16.40
2019-04-21T21:31:37.210Z,16.40
2019-04-21T21:34:13.207Z,16.40
2019-04-21T21:36:36.571Z,16.30
2019-04-21T21:39:08.209Z,16.30
2019-04-21T21:41:24.394Z,16.20
2019-04-21T21:43:57.027Z,16.20
2019-04-21T21:46:34.712Z,16.20
2019-04-21T21:49:01.310Z,16.10
2019-04-21T21:51:29.045Z,16.10
2019-04-21T21:53:48.539Z,16.00
2019-04-21T21:56:18.403Z,16.00
2019-04-21T21:58:48.415Z,16.00
2019-04-21T22:01:21.736Z,15.90
2019-04-21T22:03:48.871Z,15.90
2019-04-21T22:06:21.438Z,15.80
2019-04-21T22:08:48.280Z,15.80
2019-04-21T22:11:18.007Z,15.80
2019-04-21T22:13:54.578Z,15.70
2019-04-21T22:16:19.357Z,15.70
2019-04-21T22:19:07.996Z,15.60
2019-04-21T22:21:38.589Z,15.60
2019-04-21T22:23:56.935Z,15.50
2019-04-21T22:26:16.800Z,15.50
2019-04-21T22:28:45.559Z,15.40
2019-04-21T22:31:20.719Z,15.40
2019-04-21T22:33:48.308Z,15.30
2019-04-21T22:36:26.016Z,15.30
2019-04-21T22:39:05.268Z,15.30
2019-04-21T22:41:24.230Z,15.20
2019-04-21T22:43:48.281Z,15.20
2019-04-21T22:46:15.459Z,15.20
2019-04-21T22:48:45.376Z,15.10
2019-04-21T22:51:20.466Z,15.10
2019-04-21T22:53:48.791Z,15.10
2019-04-21T22:56:20.522Z,15.00
2019-04-21T22:58:46.108Z,15.00
2019-04-21T23:01:18.957Z,14.90
2019-04-21T23:03:49.175Z,14.90
2019-04-21T23:06:21.214Z,14.90
2019-04-21T23:08:46.150Z,14.80
2019-04-21T23:11:16.098Z,14.80
2019-04-21T23:13:51.708Z,14.70
2019-04-21T23:16:22.403Z,14.70
2019-04-21T23:19:04.328Z,14.60
2019-04-21T23:21:27.747Z,14.60
2019-04-21T23:24:05.941Z,14.60
2019-04-21T23:26:30.991Z,14.60
2019-04-21T23:29:10.956Z,14.60
2019-04-21T23:31:34.515Z,14.50
2019-04-21T23:33:46.502Z,14.50
2019-04-21T23:36:19.598Z,14.50
2019-04-21T23:38:49.411Z,14.40
2019-04-21T23:41:17.370Z,14.40
2019-04-21T23:43:53.092Z,14.30
2019-04-21T23:46:20.243Z,14.30
2019-04-21T23:49:03.885Z,14.30
2019-04-21T23:51:32.775Z,14.30
2019-04-21T23:53:47.243Z,14.20
2019-04-21T23:56:23.178Z,14.20
2019-04-21T23:58:52.962Z,14.20
